Time;durP1;ratioP1;P1;durP2;ratioP2;P2;SDS_P1;SDS_P2;PMS_P1;PMS_P2;Temp;Humidity;BMP_temperature;BMP_pressure;BME280_temperature;BME280_humidity;BME280_pressure;Samples;Min_cycle;Max_cycle;Signal;HPM_P1;HPM_P2
2021/08/18 15:59:23;;;;;;;;;;;;;;;17.95;82.74;99656.44;5088477;27;20390;-87
2021/08/18 16:01:48;;;;;;;;;;;;;;;11.62;78.71;99673.19;5105521;28;19924;-84
2021/08/18 16:04:14;;;;;;;;;;;;;;;15.74;90.32;99657.69;5089703;28;20038;-87
2021/08/18 16:06:39;;;;;;;;;;;;;;;16.15;83.57;99664.75;5086102;28;20278;-86
2021/08/18 16:09:04;;;;;;;;;;;;;;;16.06;83.34;99652.03;5079424;28;19923;-86
2021/08/18 16:11:30;;;;;;;;;;;;;;;16.03;86.88;99652.22;5089009;28;19916;-87
2021/08/18 16:13:55;;;;;;;;;;;;;;;16.33;75.36;99649.28;5089545;28;20298;-86
2021/08/18 16:16:21;;;;;;;;;;;;;;;17.01;82.03;99649.91;5088520;28;19923;-87
2021/08/18 16:18:46;;;;;;;;;;;;;;;16.28;73.55;99654.09;5087825;28;19920;-86
2021/08/18 16:21:11;;;;;;;;;;;;;;;16.27;81.23;99648.84;5091078;28;19932;-86
2021/08/18 16:23:37;;;;;;;;;;;;;;;16.18;71.62;99647.69;5105269;28;19917;-87
2021/08/18 16:26:02;;;;;;;;;;;;;;;15.76;73.89;99649.56;5097576;28;19920;-87
2021/08/18 16:28:28;;;;;;;;;;;;;;;16.28;84.94;99642.56;5105262;28;19916;-86
2021/08/18 16:30:53;;;;;;;;;;;;;;;16.88;78.10;99643.72;5089311;28;20286;-86
2021/08/18 16:33:18;;;;;;;;;;;;;;;16.20;79.73;99651.09;5089247;28;19917;-86
2021/08/18 16:35:43;;;;;;;;;;;;;;;15.38;84.67;99652.94;5086283;28;20393;-87
2021/08/18 16:38:09;;;;;;;;;;;;;;;15.66;67.38;99654.66;5089068;28;20010;-86
2021/08/18 16:40:34;;;;;;;;;;;;;;;15.44;64.42;99648.09;5085948;28;20486;-86
2021/08/18 16:43:00;;;;;;;;;;;;;;;15.95;80.61;99647.41;5086970;28;20306;-86
2021/08/18 16:45:26;;;;;;;;;;;;;;;15.47;77.61;99649.66;5087551;28;19967;-87
2021/08/18 16:47:51;;;;;;;;;;;;;;;13.53;67.40;99646.38;5087401;28;20404;-85
2021/08/18 16:50:17;;;;;;;;;;;;;;;14.67;72.18;99639.59;5087528;28;19923;-86
2021/08/18 16:52:42;;;;;;;;;;;;;;;14.43;77.32;99646.44;5087586;28;19999;-88
2021/08/18 16:55:11;;;;;;;;;;;;;;;15.82;74.40;99638.50;5087427;28;19942;-86
2021/08/18 16:57:38;;;;;;;;;;;;;;;16.69;81.11;99628.13;5087239;28;20501;-89
2021/08/18 17:00:04;;;;;;;;;;;;;;;15.35;73.76;99632.66;5104643;28;19973;-89
2021/08/18 17:02:30;;;;;;;;;;;;;;;16.23;81.23;99631.31;5088624;28;19970;-88
2021/08/18 17:04:55;;;;;;;;;;;;;;;15.71;66.55;99631.16;5088894;28;20325;-88
2021/08/18 17:07:20;;;;;;;;;;;;;;;15.12;77.08;99627.94;5087438;28;20360;-89
2021/08/18 17:09:46;;;;;;;;;;;;;;;16.09;77.43;99625.09;5081153;28;19923;-88
2021/08/18 17:12:11;;;;;;;;;;;;;;;15.25;82.36;99624.41;5082410;28;19955;-88
2021/08/18 17:14:36;;;;;;;;;;;;;;;16.05;79.24;99628.06;5075793;28;20255;-88
2021/08/18 17:17:02;;;;;;;;;;;;;;;16.34;83.19;99620.75;5074396;28;19923;-89
2021/08/18 17:19:27;;;;;;;;;;;;;;;15.81;80.69;99623.41;5075460;28;20459;-88
2021/08/18 17:21:53;;;;;;;;;;;;;;;16.77;80.17;99616.84;5073375;28;19959;-89
2021/08/18 17:24:19;;;;;;;;;;;;;;;16.21;77.33;99614.50;5074719;28;19927;-87
2021/08/18 17:26:45;;;;;;;;;;;;;;;15.48;67.84;99621.19;5074369;28;19917;-88
2021/08/18 17:29:10;;;;;;;;;;;;;;;15.76;75.92;99622.84;5075615;28;19923;-89
2021/08/18 17:31:37;;;;;;;;;;;;;;;15.44;81.92;99629.38;5075734;28;19924;-88
2021/08/18 17:34:02;;;;;;;;;;;;;;;15.07;84.08;99626.41;5073834;28;19916;-90
2021/08/18 17:36:28;;;;;;;;;;;;;;;16.34;84.39;99620.75;5073347;28;20260;-89
2021/08/18 17:38:53;;;;;;;;;;;;;;;16.33;80.58;99627.03;5073915;28;20073;-88
2021/08/18 17:41:19;;;;;;;;;;;;;;;16.06;78.66;99627.97;5073880;28;19927;-87
2021/08/18 17:43:45;;;;;;;;;;;;;;;15.38;83.25;99643.13;5074100;28;19912;-89
2021/08/18 17:46:10;;;;;;;;;;;;;;;15.45;83.29;99627.56;5071673;28;19920;-87
2021/08/18 17:48:35;;;;;;;;;;;;;;;15.89;81.01;99631.81;5088675;28;19912;-87
2021/08/18 17:51:01;;;;;;;;;;;;;;;16.40;79.30;99628.34;5074750;28;20027;-89
2021/08/18 17:53:27;;;;;;;;;;;;;;;16.16;77.96;99630.88;5073768;28;19923;-86
2021/08/18 17:55:52;;;;;;;;;;;;;;;16.27;85.88;99628.31;5074440;28;19912;-88
2021/08/18 17:58:17;;;;;;;;;;;;;;;16.43;67.91;99620.06;5074532;28;20298;-87
2021/08/18 18:00:42;;;;;;;;;;;;;;;15.93;73.42;99624.44;5077845;28;19969;-87
2021/08/18 18:03:08;;;;;;;;;;;;;;;16.37;78.08;99622.34;5073171;28;19928;-86
2021/08/18 18:05:34;;;;;;;;;;;;;;;16.14;75.96;99636.31;5089859;28;20379;-89
2021/08/18 18:08:00;;;;;;;;;;;;;;;16.58;81.21;99625.31;5072657;28;19923;-88
2021/08/18 18:10:25;;;;;;;;;;;;;;;16.42;78.39;99628.22;5074762;28;19967;-88
2021/08/18 18:12:50;;;;;;;;;;;;;;;15.69;79.92;99633.09;5073552;28;19916;-87
2021/08/18 18:15:16;;;;;;;;;;;;;;;16.01;76.20;99627.44;5071497;28;19917;-88
2021/08/18 18:17:41;;;;;;;;;;;;;;;16.38;80.31;99629.41;5072896;28;20283;-88
2021/08/18 18:20:07;;;;;;;;;;;;;;;16.15;79.82;99634.53;5072743;28;19916;-88
2021/08/18 18:22:32;;;;;;;;;;;;;;;16.62;77.70;99627.66;5070913;28;19912;-88
2021/08/18 18:24:58;;;;;;;;;;;;;;;16.09;74.11;99633.09;5072642;28;20012;-87
2021/08/18 18:27:23;;;;;;;;;;;;;;;16.63;83.67;99624.03;5073822;28;20355;-88
2021/08/18 18:29:48;;;;;;;;;;;;;;;16.58;79.80;99631.53;5072588;28;19943;-89
2021/08/18 18:32:14;;;;;;;;;;;;;;;16.39;77.57;99625.78;5071023;28;19917;-86
2021/08/18 18:34:40;;;;;;;;;;;;;;;14.44;83.75;99626.81;5073950;28;20390;-89
2021/08/18 18:37:05;;;;;;;;;;;;;;;15.13;82.19;99624.34;5071357;28;19978;-87
2021/08/18 18:39:31;;;;;;;;;;;;;;;15.25;81.34;99629.72;5072278;28;19943;-87
2021/08/18 18:41:56;;;;;;;;;;;;;;;15.93;80.09;99627.94;5071792;28;19923;-87
2021/08/18 18:44:21;;;;;;;;;;;;;;;16.42;83.59;99630.88;5071757;28;19924;-87
2021/08/18 18:46:46;;;;;;;;;;;;;;;16.08;83.84;99628.75;5072385;28;19916;-87
2021/08/18 18:49:12;;;;;;;;;;;;;;;15.96;75.33;99632.25;5072935;28;19920;-88
2021/08/18 18:51:37;;;;;;;;;;;;;;;16.47;82.37;99629.63;5072318;28;20362;-88
2021/08/18 18:54:02;;;;;;;;;;;;;;;16.47;78.98;99626.09;5088725;28;20363;-88
2021/08/18 18:56:28;;;;;;;;;;;;;;;16.42;78.27;99629.09;5072085;28;19916;-87
2021/08/18 18:58:53;;;;;;;;;;;;;;;16.52;84.55;99635.47;5072335;28;19935;-88
2021/08/18 19:01:18;;;;;;;;;;;;;;;16.46;80.92;99630.56;5072473;28;19983;-86
2021/08/18 19:03:44;;;;;;;;;;;;;;;15.92;74.89;99625.38;5072985;28;20019;-86
2021/08/18 19:06:09;;;;;;;;;;;;;;;16.43;81.81;99636.13;5069748;28;19916;-87
2021/08/18 19:08:35;;;;;;;;;;;;;;;16.03;79.49;99638.88;5071027;28;19970;-87
2021/08/18 19:11:00;;;;;;;;;;;;;;;16.59;83.57;99643.09;5070723;28;19916;-86
2021/08/18 19:13:26;;;;;;;;;;;;;;;16.49;80.92;99638.38;5071859;28;19924;-86
2021/08/18 19:15:51;;;;;;;;;;;;;;;16.09;70.11;99643.81;5072121;28;20419;-89
2021/08/18 19:18:16;;;;;;;;;;;;;;;16.22;82.09;99642.97;5073093;28;20394;-88
2021/08/18 19:20:43;;;;;;;;;;;;;;;15.62;77.52;99646.00;5071859;28;19916;-86
2021/08/18 19:23:10;;;;;;;;;;;;;;;15.99;74.87;99645.41;5070993;28;19923;-87
2021/08/18 19:25:35;;;;;;;;;;;;;;;16.16;79.94;99647.78;5071158;28;19924;-86
2021/08/18 19:28:00;;;;;;;;;;;;;;;16.05;74.29;99649.44;5070985;28;19962;-88
2021/08/18 19:30:25;;;;;;;;;;;;;;;16.46;83.26;99648.44;5069615;28;19997;-87
2021/08/18 19:32:51;;;;;;;;;;;;;;;16.51;82.28;99648.97;5069235;28;19923;-87
2021/08/18 19:35:16;;;;;;;;;;;;;;;15.89;77.12;99646.97;5070400;28;19974;-87
2021/08/18 19:37:42;;;;;;;;;;;;;;;16.26;81.85;99656.03;5071617;28;19920;-89
2021/08/18 19:40:12;;;;;;;;;;;;;;;16.18;80.02;99653.03;5070912;28;19916;-86
2021/08/18 19:42:38;;;;;;;;;;;;;;;16.10;66.15;99642.84;5071953;28;19916;-87
2021/08/18 19:45:04;;;;;;;;;;;;;;;15.80;80.33;99648.44;5070994;28;19922;-86
2021/08/18 19:47:29;;;;;;;;;;;;;;;15.76;83.09;99638.88;5070830;28;19924;-88
2021/08/18 19:49:58;;;;;;;;;;;;;;;14.97;79.39;99645.78;5070938;28;19966;-87
2021/08/18 19:52:24;;;;;;;;;;;;;;;15.58;77.80;99633.81;5085084;28;20434;-87
2021/08/18 19:54:49;;;;;;;;;;;;;;;15.40;77.88;99641.22;5070822;28;19920;-88
2021/08/18 19:57:14;;;;;;;;;;;;;;;15.98;75.05;99633.84;5087422;28;19921;-88
2021/08/18 19:59:39;;;;;;;;;;;;;;;15.40;77.11;99641.22;5087882;28;20413;-87
2021/08/18 20:02:05;;;;;;;;;;;;;;;16.12;82.39;99640.91;5069653;28;20026;-86
2021/08/18 20:04:30;;;;;;;;;;;;;;;14.63;82.44;99638.09;5070477;28;19920;-87
2021/08/18 20:06:55;;;;;;;;;;;;;;;14.16;64.63;99637.34;5070165;28;19923;-85
2021/08/18 20:09:23;;;;;;;;;;;;;;;15.63;77.02;99646.84;5070085;28;19920;-87
2021/08/18 20:11:48;;;;;;;;;;;;;;;15.00;82.73;99648.28;5070875;28;19920;-88
2021/08/18 20:14:13;;;;;;;;;;;;;;;16.42;80.51;99642.44;5081930;28;20279;-88
2021/08/18 20:16:38;;;;;;;;;;;;;;;16.26;81.40;99644.47;5070847;28;19916;-87
2021/08/18 20:19:04;;;;;;;;;;;;;;;16.35;80.12;99643.81;5071148;28;19924;-87
2021/08/18 20:21:29;;;;;;;;;;;;;;;15.94;76.18;99652.88;5070208;28;19920;-88
2021/08/18 20:23:55;;;;;;;;;;;;;;;15.77;73.99;99645.97;5071411;28;19920;-88
2021/08/18 20:26:20;;;;;;;;;;;;;;;16.14;78.96;99649.69;5072562;28;19916;-88
2021/08/18 20:28:45;;;;;;;;;;;;;;;15.88;77.06;99638.09;5069710;28;20006;-88
2021/08/18 20:31:10;;;;;;;;;;;;;;;16.06;77.61;99649.34;5070741;28;20367;-86
2021/08/18 20:33:36;;;;;;;;;;;;;;;15.91;81.85;99647.72;5072351;28;20004;-88
2021/08/18 20:36:02;;;;;;;;;;;;;;;15.72;76.84;99648.91;5076189;28;19916;-86
2021/08/18 20:38:27;;;;;;;;;;;;;;;15.82;80.14;99653.69;5070729;28;19924;-88
2021/08/18 20:40:52;;;;;;;;;;;;;;;15.97;82.23;99658.84;5070275;28;19966;-86
2021/08/18 20:43:17;;;;;;;;;;;;;;;15.23;69.95;99654.78;5069592;28;19917;-87
2021/08/18 20:45:43;;;;;;;;;;;;;;;16.39;79.54;99666.72;5072893;28;19955;-86
2021/08/18 20:48:08;;;;;;;;;;;;;;;16.50;80.15;99655.28;5073352;28;19920;-87
2021/08/18 20:50:34;;;;;;;;;;;;;;;16.38;82.30;99661.47;5090300;28;20383;-87
2021/08/18 20:52:59;;;;;;;;;;;;;;;15.97;75.53;99649.97;5072964;28;19923;-88
2021/08/18 20:55:24;;;;;;;;;;;;;;;16.19;79.83;99660.06;5089986;28;20019;-88
2021/08/18 20:57:50;;;;;;;;;;;;;;;15.02;79.07;99660.53;5072718;28;19921;-86
2021/08/18 21:00:17;;;;;;;;;;;;;;;16.16;84.54;99655.81;5073868;28;19979;-88
2021/08/18 21:02:42;;;;;;;;;;;;;;;16.22;78.46;99661.69;5073235;28;19920;-86
2021/08/18 21:05:08;;;;;;;;;;;;;;;16.14;81.33;99654.19;5073799;28;19916;-88
2021/08/18 21:07:33;;;;;;;;;;;;;;;16.46;80.75;99653.78;5072394;28;19916;-86
2021/08/18 21:09:58;;;;;;;;;;;;;;;16.41;85.44;99654.09;5075387;28;19923;-86
2021/08/18 21:12:24;;;;;;;;;;;;;;;16.07;68.71;99653.75;5073937;28;19979;-86
2021/08/18 21:14:49;;;;;;;;;;;;;;;16.08;72.00;99660.81;5073764;28;19927;-87
2021/08/18 21:17:14;;;;;;;;;;;;;;;15.54;71.87;99661.69;5073633;28;20424;-86
2021/08/18 21:19:40;;;;;;;;;;;;;;;15.57;70.40;99660.59;5072112;28;20360;-87
2021/08/18 21:22:08;;;;;;;;;;;;;;;16.05;84.47;99655.69;5072723;28;19931;-86
2021/08/18 21:24:33;;;;;;;;;;;;;;;16.26;82.25;99657.84;5073789;28;19921;-87
2021/08/18 21:26:59;;;;;;;;;;;;;;;16.44;83.07;99656.56;5073446;28;19977;-86
2021/08/18 21:29:24;;;;;;;;;;;;;;;16.69;78.86;99650.34;5074609;28;19921;-86
2021/08/18 21:31:49;;;;;;;;;;;;;;;16.67;79.94;99651.41;5074604;28;19916;-86
2021/08/18 21:34:14;;;;;;;;;;;;;;;16.32;72.01;99663.63;5073421;28;19925;-86
2021/08/18 21:36:40;;;;;;;;;;;;;;;15.95;80.96;99655.41;5089628;28;19917;-88
2021/08/18 21:39:06;;;;;;;;;;;;;;;16.35;78.89;99657.19;5074753;28;20286;-87
2021/08/18 21:41:31;;;;;;;;;;;;;;;16.28;78.05;99662.09;5072449;28;20015;-87
2021/08/18 21:43:56;;;;;;;;;;;;;;;16.52;69.72;99654.19;5073481;28;19919;-88
2021/08/18 21:46:21;;;;;;;;;;;;;;;16.66;80.04;99650.56;5074353;28;20318;-88
2021/08/18 21:48:47;;;;;;;;;;;;;;;16.64;82.44;99652.50;5072846;28;20014;-86
2021/08/18 21:51:12;;;;;;;;;;;;;;;16.88;80.09;99660.66;5072033;28;19959;-86
2021/08/18 21:53:37;;;;;;;;;;;;;;;16.06;78.78;99660.03;5073199;28;20458;-87
2021/08/18 21:56:02;;;;;;;;;;;;;;;15.86;69.60;99656.06;5070753;28;20074;-87
2021/08/18 21:58:28;;;;;;;;;;;;;;;16.26;71.71;99653.34;5071011;28;20025;-85
2021/08/18 22:00:53;;;;;;;;;;;;;;;16.61;75.71;99652.72;5073185;28;19917;-87
2021/08/18 22:03:19;;;;;;;;;;;;;;;16.71;80.92;99656.44;5072836;28;19939;-86
2021/08/18 22:05:46;;;;;;;;;;;;;;;16.85;80.76;99649.28;5088179;28;19916;-86
2021/08/18 22:08:11;;;;;;;;;;;;;;;15.93;75.88;99648.47;5072756;28;19927;-85
2021/08/18 22:10:37;;;;;;;;;;;;;;;16.30;82.36;99654.00;5072724;28;19920;-88
2021/08/18 22:13:03;;;;;;;;;;;;;;;16.44;79.36;99655.72;5072873;28;19922;-87
2021/08/18 22:15:28;;;;;;;;;;;;;;;16.50;75.49;99652.63;5072076;28;20003;-88
2021/08/18 22:17:53;;;;;;;;;;;;;;;16.58;78.57;99660.09;5071745;28;19970;-88
2021/08/18 22:20:19;;;;;;;;;;;;;;;16.64;77.42;99660.53;5080944;28;19935;-87
2021/08/18 22:22:46;;;;;;;;;;;;;;;16.43;81.81;99656.66;5072886;28;20374;-86
2021/08/18 22:27:37;;;;;;;;;;;;;;;16.59;86.26;99654.63;5108827;27;19917;-84
2021/08/18 22:30:02;;;;;;;;;;;;;;;17.24;83.65;99650.06;5088952;28;19989;-84
2021/08/18 22:32:27;;;;;;;;;;;;;;;16.52;81.28;99659.56;5079317;28;20375;-83
2021/08/18 22:34:53;;;;;;;;;;;;;;;16.75;74.82;99653.56;5078685;28;20286;-83
2021/08/18 22:37:18;;;;;;;;;;;;;;;17.00;83.03;99652.72;5078019;28;20442;-83
2021/08/18 22:39:43;;;;;;;;;;;;;;;17.07;82.29;99648.59;5078844;28;19970;-84
2021/08/18 22:42:08;;;;;;;;;;;;;;;17.18;84.33;99648.72;5079464;28;20711;-84
2021/08/18 22:44:34;;;;;;;;;;;;;;;16.83;80.69;99651.19;5079164;28;20279;-83
2021/08/18 22:46:59;;;;;;;;;;;;;;;16.99;80.84;99646.50;5075635;28;19924;-83
2021/08/18 22:49:24;;;;;;;;;;;;;;;16.91;82.36;99648.84;5079252;28;19963;-84
2021/08/18 22:51:49;;;;;;;;;;;;;;;16.82;80.58;99642.31;5087974;28;19920;-84
2021/08/18 22:54:15;;;;;;;;;;;;;;;17.21;82.89;99642.25;5075685;28;20347;-84
2021/08/18 22:56:40;;;;;;;;;;;;;;;17.09;80.85;99648.50;5075860;28;19973;-84
2021/08/18 22:59:05;;;;;;;;;;;;;;;17.17;81.58;99638.97;5086772;28;19960;-83
2021/08/18 23:01:31;;;;;;;;;;;;;;;17.34;81.39;99642.22;5078958;28;19920;-84
2021/08/18 23:03:56;;;;;;;;;;;;;;;17.07;81.25;99648.59;5079036;28;19923;-84
2021/08/18 23:06:21;;;;;;;;;;;;;;;17.24;84.35;99648.25;5074319;28;19927;-83
2021/08/18 23:08:47;;;;;;;;;;;;;;;17.18;80.73;99640.69;5088755;28;19916;-84
2021/08/18 23:11:12;;;;;;;;;;;;;;;17.10;83.58;99637.69;5088865;28;20283;-83
2021/08/18 23:13:38;;;;;;;;;;;;;;;16.92;81.14;99655.09;5088635;28;19916;-82
2021/08/18 23:16:03;;;;;;;;;;;;;;;16.94;79.53;99648.63;5078186;28;20371;-81
2021/08/18 23:18:29;;;;;;;;;;;;;;;16.77;77.83;99652.50;5087470;28;19966;-81
2021/08/18 23:20:55;;;;;;;;;;;;;;;16.91;80.68;99653.34;5087411;28;20282;-82
2021/08/18 23:23:21;;;;;;;;;;;;;;;16.87;81.58;99642.88;5077969;28;19969;-81
2021/08/18 23:25:48;;;;;;;;;;;;;;;16.88;82.26;99644.59;5088141;28;19921;-81
2021/08/18 23:28:13;;;;;;;;;;;;;;;16.91;80.60;99642.66;5088489;28;19921;-82
2021/08/18 23:30:39;;;;;;;;;;;;;;;16.89;81.81;99643.59;5077944;28;20334;-81
2021/08/18 23:33:04;;;;;;;;;;;;;;;16.87;83.85;99642.03;5078426;28;20353;-82
2021/08/18 23:35:30;;;;;;;;;;;;;;;17.43;80.73;99644.22;5078450;28;20004;-81
2021/08/18 23:37:55;;;;;;;;;;;;;;;16.99;81.96;99642.97;5079546;28;20496;-81
2021/08/18 23:40:20;;;;;;;;;;;;;;;17.03;81.49;99641.78;5064251;28;19917;-81
2021/08/18 23:42:45;;;;;;;;;;;;;;;16.84;81.62;99643.06;5074715;28;19927;-82
2021/08/18 23:45:11;;;;;;;;;;;;;;;17.15;82.75;99640.03;5064452;28;19917;-81
2021/08/18 23:47:37;;;;;;;;;;;;;;;17.11;83.16;99650.09;5064634;28;20306;-81
2021/08/18 23:50:02;;;;;;;;;;;;;;;17.02;81.51;99643.63;5073049;28;19963;-81
2021/08/18 23:52:27;;;;;;;;;;;;;;;16.58;77.18;99652.94;5072686;28;20418;-81
2021/08/18 23:54:53;;;;;;;;;;;;;;;16.85;81.66;99649.28;5074671;28;19921;-82
2021/08/18 23:57:19;;;;;;;;;;;;;;;16.98;81.05;99649.28;5074546;28;19916;-81
